sensor_id;sensor_type;location;lat;lon;timestamp;P1;durP1;ratioP1;P2;durP2;ratioP2
68212;SDS011;55035;47.792;8.724;2022-11-20T00:01:11;10.15;;;2.50;;
68212;SDS011;55035;47.792;8.724;2022-11-20T00:03:39;7.27;;;2.10;;
68212;SDS011;55035;47.792;8.724;2022-11-20T00:06:06;6.78;;;2.13;;
68212;SDS011;55035;47.792;8.724;2022-11-20T00:08:33;7.13;;;2.40;;
68212;SDS011;55035;47.792;8.724;2022-11-20T00:11:02;8.23;;;2.38;;
68212;SDS011;55035;47.792;8.724;2022-11-20T00:13:29;7.07;;;2.53;;
68212;SDS011;55035;47.792;8.724;2022-11-20T00:15:56;7.27;;;2.40;;
68212;SDS011;55035;47.792;8.724;2022-11-20T00:18:24;8.10;;;2.65;;
68212;SDS011;55035;47.792;8.724;2022-11-20T00:20:51;6.65;;;2.15;;
68212;SDS011;55035;47.792;8.724;2022-11-20T00:23:18;7.00;;;2.63;;
68212;SDS011;55035;47.792;8.724;2022-11-20T00:25:45;7.05;;;2.50;;
68212;SDS011;55035;47.792;8.724;2022-11-20T00:28:12;7.37;;;2.63;;
68212;SDS011;55035;47.792;8.724;2022-11-20T00:30:40;9.68;;;2.80;;
68212;SDS011;55035;47.792;8.724;2022-11-20T00:33:06;6.75;;;2.20;;
68212;SDS011;55035;47.792;8.724;2022-11-20T00:35:35;7.80;;;2.70;;
68212;SDS011;55035;47.792;8.724;2022-11-20T00:38:01;7.97;;;3.00;;
68212;SDS011;55035;47.792;8.724;2022-11-20T00:40:28;7.73;;;3.00;;
68212;SDS011;55035;47.792;8.724;2022-11-20T00:42:55;8.25;;;2.92;;
68212;SDS011;55035;47.792;8.724;2022-11-20T00:45:22;8.27;;;3.08;;
68212;SDS011;55035;47.792;8.724;2022-11-20T00:47:49;9.50;;;3.15;;
68212;SDS011;55035;47.792;8.724;2022-11-20T00:50:16;8.73;;;3.42;;
68212;SDS011;55035;47.792;8.724;2022-11-20T00:52:44;8.70;;;3.23;;
68212;SDS011;55035;47.792;8.724;2022-11-20T00:55:11;9.00;;;3.17;;
68212;SDS011;55035;47.792;8.724;2022-11-20T00:57:37;9.45;;;3.00;;
68212;SDS011;55035;47.792;8.724;2022-11-20T01:00:05;8.50;;;3.35;;
68212;SDS011;55035;47.792;8.724;2022-11-20T01:02:32;8.30;;;3.30;;
68212;SDS011;55035;47.792;8.724;2022-11-20T01:04:59;8.73;;;3.23;;
68212;SDS011;55035;47.792;8.724;2022-11-20T01:07:26;8.25;;;3.15;;
68212;SDS011;55035;47.792;8.724;2022-11-20T01:09:54;8.50;;;3.60;;
68212;SDS011;55035;47.792;8.724;2022-11-20T01:12:21;8.23;;;2.92;;
68212;SDS011;55035;47.792;8.724;2022-11-20T01:14:47;8.65;;;3.53;;
68212;SDS011;55035;47.792;8.724;2022-11-20T01:17:14;9.43;;;3.83;;
68212;SDS011;55035;47.792;8.724;2022-11-20T01:19:41;9.23;;;3.45;;
68212;SDS011;55035;47.792;8.724;2022-11-20T01:22:09;9.27;;;3.15;;
68212;SDS011;55035;47.792;8.724;2022-11-20T01:24:36;8.20;;;3.20;;
68212;SDS011;55035;47.792;8.724;2022-11-20T01:27:04;8.25;;;2.90;;
68212;SDS011;55035;47.792;8.724;2022-11-20T01:29:31;7.47;;;2.80;;
68212;SDS011;55035;47.792;8.724;2022-11-20T01:31:58;8.57;;;3.35;;
68212;SDS011;55035;47.792;8.724;2022-11-20T01:34:25;9.30;;;3.00;;
68212;SDS011;55035;47.792;8.724;2022-11-20T01:36:52;7.70;;;2.97;;
68212;SDS011;55035;47.792;8.724;2022-11-20T01:39:20;7.65;;;2.85;;
68212;SDS011;55035;47.792;8.724;2022-11-20T01:41:47;7.33;;;2.80;;
68212;SDS011;55035;47.792;8.724;2022-11-20T01:44:49;8.50;;;3.25;;
68212;SDS011;55035;47.792;8.724;2022-11-20T01:47:17;8.65;;;2.90;;
68212;SDS011;55035;47.792;8.724;2022-11-20T01:49:46;7.68;;;2.85;;
68212;SDS011;55035;47.792;8.724;2022-11-20T01:52:15;8.82;;;2.78;;
68212;SDS011;55035;47.792;8.724;2022-11-20T01:54:43;7.00;;;2.60;;
68212;SDS011;55035;47.792;8.724;2022-11-20T01:57:12;7.63;;;2.80;;
68212;SDS011;55035;47.792;8.724;2022-11-20T01:59:41;7.28;;;3.03;;
68212;SDS011;55035;47.792;8.724;2022-11-20T02:02:11;8.63;;;3.00;;
68212;SDS011;55035;47.792;8.724;2022-11-20T02:04:38;9.05;;;3.15;;
68212;SDS011;55035;47.792;8.724;2022-11-20T02:07:05;8.47;;;2.93;;
68212;SDS011;55035;47.792;8.724;2022-11-20T02:09:32;9.23;;;3.00;;
68212;SDS011;55035;47.792;8.724;2022-11-20T02:11:59;9.48;;;3.40;;
68212;SDS011;55035;47.792;8.724;2022-11-20T02:14:25;7.15;;;2.72;;
68212;SDS011;55035;47.792;8.724;2022-11-20T02:16:51;8.10;;;3.10;;
68212;SDS011;55035;47.792;8.724;2022-11-20T02:19:22;8.00;;;3.00;;
68212;SDS011;55035;47.792;8.724;2022-11-20T02:21:52;9.68;;;3.83;;
68212;SDS011;55035;47.792;8.724;2022-11-20T02:24:22;13.38;;;5.47;;
68212;SDS011;55035;47.792;8.724;2022-11-20T02:26:50;10.55;;;3.97;;
68212;SDS011;55035;47.792;8.724;2022-11-20T02:29:19;9.65;;;3.47;;
68212;SDS011;55035;47.792;8.724;2022-11-20T02:31:48;8.20;;;3.17;;
68212;SDS011;55035;47.792;8.724;2022-11-20T02:34:15;11.60;;;3.33;;
68212;SDS011;55035;47.792;8.724;2022-11-20T02:36:43;8.82;;;3.20;;
68212;SDS011;55035;47.792;8.724;2022-11-20T02:39:11;7.78;;;2.85;;
68212;SDS011;55035;47.792;8.724;2022-11-20T02:41:39;9.88;;;3.50;;
68212;SDS011;55035;47.792;8.724;2022-11-20T02:44:06;11.07;;;3.70;;
68212;SDS011;55035;47.792;8.724;2022-11-20T02:46:33;11.23;;;4.47;;
68212;SDS011;55035;47.792;8.724;2022-11-20T02:49:00;10.93;;;4.30;;
68212;SDS011;55035;47.792;8.724;2022-11-20T02:51:27;10.63;;;3.85;;
68212;SDS011;55035;47.792;8.724;2022-11-20T02:53:54;10.27;;;3.92;;
68212;SDS011;55035;47.792;8.724;2022-11-20T02:56:21;11.27;;;4.13;;
68212;SDS011;55035;47.792;8.724;2022-11-20T02:58:50;9.90;;;3.40;;
68212;SDS011;55035;47.792;8.724;2022-11-20T03:01:17;11.15;;;4.10;;
68212;SDS011;55035;47.792;8.724;2022-11-20T03:03:43;12.43;;;4.80;;
68212;SDS011;55035;47.792;8.724;2022-11-20T03:06:10;8.50;;;3.05;;
68212;SDS011;55035;47.792;8.724;2022-11-20T03:08:37;11.83;;;4.67;;
68212;SDS011;55035;47.792;8.724;2022-11-20T03:11:05;12.05;;;4.80;;
68212;SDS011;55035;47.792;8.724;2022-11-20T03:13:32;13.00;;;4.65;;
68212;SDS011;55035;47.792;8.724;2022-11-20T03:16:05;10.25;;;3.50;;
68212;SDS011;55035;47.792;8.724;2022-11-20T03:18:32;12.70;;;5.05;;
68212;SDS011;55035;47.792;8.724;2022-11-20T03:20:59;11.47;;;4.33;;
68212;SDS011;55035;47.792;8.724;2022-11-20T03:23:26;12.10;;;5.10;;
68212;SDS011;55035;47.792;8.724;2022-11-20T03:25:55;12.57;;;5.82;;
68212;SDS011;55035;47.792;8.724;2022-11-20T03:28:21;11.48;;;4.47;;
68212;SDS011;55035;47.792;8.724;2022-11-20T03:30:48;14.80;;;5.88;;
68212;SDS011;55035;47.792;8.724;2022-11-20T03:33:16;11.90;;;5.10;;
68212;SDS011;55035;47.792;8.724;2022-11-20T03:35:44;13.10;;;5.07;;
68212;SDS011;55035;47.792;8.724;2022-11-20T03:38:11;12.05;;;5.30;;
68212;SDS011;55035;47.792;8.724;2022-11-20T03:40:38;15.48;;;5.03;;
68212;SDS011;55035;47.792;8.724;2022-11-20T03:43:05;14.50;;;5.55;;
68212;SDS011;55035;47.792;8.724;2022-11-20T03:45:32;12.27;;;5.40;;
68212;SDS011;55035;47.792;8.724;2022-11-20T03:47:59;12.80;;;4.88;;
68212;SDS011;55035;47.792;8.724;2022-11-20T03:50:27;13.25;;;4.97;;
68212;SDS011;55035;47.792;8.724;2022-11-20T03:52:53;12.15;;;5.28;;
68212;SDS011;55035;47.792;8.724;2022-11-20T03:55:20;13.80;;;4.85;;
68212;SDS011;55035;47.792;8.724;2022-11-20T03:57:47;11.70;;;5.00;;
68212;SDS011;55035;47.792;8.724;2022-11-20T04:00:14;12.40;;;4.85;;
68212;SDS011;55035;47.792;8.724;2022-11-20T04:02:41;11.93;;;4.68;;
68212;SDS011;55035;47.792;8.724;2022-11-20T04:05:08;12.30;;;4.35;;
68212;SDS011;55035;47.792;8.724;2022-11-20T04:07:36;13.43;;;4.65;;
68212;SDS011;55035;47.792;8.724;2022-11-20T04:10:03;12.57;;;4.87;;
68212;SDS011;55035;47.792;8.724;2022-11-20T04:12:31;11.57;;;4.50;;
68212;SDS011;55035;47.792;8.724;2022-11-20T04:14:58;10.63;;;4.15;;
68212;SDS011;55035;47.792;8.724;2022-11-20T04:17:25;10.88;;;4.20;;
68212;SDS011;55035;47.792;8.724;2022-11-20T04:19:52;11.02;;;3.97;;
68212;SDS011;55035;47.792;8.724;2022-11-20T04:22:19;12.80;;;3.60;;
68212;SDS011;55035;47.792;8.724;2022-11-20T04:24:47;9.98;;;3.30;;
68212;SDS011;55035;47.792;8.724;2022-11-20T04:27:14;7.43;;;2.47;;
68212;SDS011;55035;47.792;8.724;2022-11-20T04:29:41;8.40;;;2.67;;
68212;SDS011;55035;47.792;8.724;2022-11-20T04:32:07;8.30;;;3.20;;
68212;SDS011;55035;47.792;8.724;2022-11-20T04:34:34;7.53;;;2.57;;
68212;SDS011;55035;47.792;8.724;2022-11-20T04:37:02;9.20;;;3.53;;
68212;SDS011;55035;47.792;8.724;2022-11-20T04:39:28;10.27;;;2.97;;
68212;SDS011;55035;47.792;8.724;2022-11-20T04:41:57;7.20;;;2.38;;
68212;SDS011;55035;47.792;8.724;2022-11-20T04:44:37;8.70;;;2.92;;
68212;SDS011;55035;47.792;8.724;2022-11-20T04:47:04;8.73;;;3.07;;
68212;SDS011;55035;47.792;8.724;2022-11-20T04:49:31;9.05;;;3.00;;
68212;SDS011;55035;47.792;8.724;2022-11-20T04:51:59;10.00;;;3.95;;
68212;SDS011;55035;47.792;8.724;2022-11-20T04:54:26;9.77;;;3.42;;
68212;SDS011;55035;47.792;8.724;2022-11-20T04:56:53;8.23;;;3.10;;
68212;SDS011;55035;47.792;8.724;2022-11-20T04:59:21;10.27;;;4.20;;
68212;SDS011;55035;47.792;8.724;2022-11-20T05:01:48;9.27;;;3.40;;
68212;SDS011;55035;47.792;8.724;2022-11-20T05:04:15;9.80;;;3.65;;
68212;SDS011;55035;47.792;8.724;2022-11-20T05:06:41;11.13;;;3.90;;
68212;SDS011;55035;47.792;8.724;2022-11-20T05:09:08;11.35;;;3.92;;
68212;SDS011;55035;47.792;8.724;2022-11-20T05:11:35;9.67;;;3.50;;
68212;SDS011;55035;47.792;8.724;2022-11-20T05:14:02;8.65;;;3.28;;
68212;SDS011;55035;47.792;8.724;2022-11-20T05:16:30;11.02;;;3.22;;
68212;SDS011;55035;47.792;8.724;2022-11-20T05:18:57;9.32;;;3.55;;
68212;SDS011;55035;47.792;8.724;2022-11-20T05:21:24;8.55;;;3.38;;
68212;SDS011;55035;47.792;8.724;2022-11-20T05:23:51;8.03;;;3.60;;
68212;SDS011;55035;47.792;8.724;2022-11-20T05:26:18;10.18;;;3.47;;
68212;SDS011;55035;47.792;8.724;2022-11-20T05:28:46;10.70;;;4.13;;
68212;SDS011;55035;47.792;8.724;2022-11-20T05:31:14;10.95;;;3.10;;
68212;SDS011;55035;47.792;8.724;2022-11-20T05:33:43;9.90;;;3.50;;
68212;SDS011;55035;47.792;8.724;2022-11-20T05:36:10;9.67;;;3.47;;
68212;SDS011;55035;47.792;8.724;2022-11-20T05:38:38;9.50;;;3.60;;
68212;SDS011;55035;47.792;8.724;2022-11-20T05:41:05;12.52;;;4.03;;
68212;SDS011;55035;47.792;8.724;2022-11-20T05:43:32;12.43;;;4.00;;
68212;SDS011;55035;47.792;8.724;2022-11-20T05:46:00;9.18;;;3.70;;
68212;SDS011;55035;47.792;8.724;2022-11-20T05:48:27;9.90;;;3.80;;
68212;SDS011;55035;47.792;8.724;2022-11-20T05:50:56;7.90;;;2.92;;
68212;SDS011;55035;47.792;8.724;2022-11-20T05:53:23;11.32;;;3.85;;
68212;SDS011;55035;47.792;8.724;2022-11-20T05:55:55;10.18;;;3.67;;
68212;SDS011;55035;47.792;8.724;2022-11-20T05:58:22;9.73;;;4.10;;
68212;SDS011;55035;47.792;8.724;2022-11-20T06:00:49;11.37;;;3.70;;
68212;SDS011;55035;47.792;8.724;2022-11-20T06:03:16;9.80;;;3.65;;
68212;SDS011;55035;47.792;8.724;2022-11-20T06:05:43;11.10;;;3.75;;
68212;SDS011;55035;47.792;8.724;2022-11-20T06:08:11;8.85;;;3.28;;
68212;SDS011;55035;47.792;8.724;2022-11-20T06:10:39;9.82;;;3.42;;
68212;SDS011;55035;47.792;8.724;2022-11-20T06:13:06;7.00;;;2.57;;
68212;SDS011;55035;47.792;8.724;2022-11-20T06:15:33;8.63;;;2.88;;
68212;SDS011;55035;47.792;8.724;2022-11-20T06:18:00;7.68;;;2.80;;
68212;SDS011;55035;47.792;8.724;2022-11-20T06:20:26;7.40;;;2.60;;
68212;SDS011;55035;47.792;8.724;2022-11-20T06:22:53;9.57;;;3.28;;
68212;SDS011;55035;47.792;8.724;2022-11-20T06:25:21;8.60;;;3.00;;
68212;SDS011;55035;47.792;8.724;2022-11-20T06:27:48;9.57;;;3.60;;
68212;SDS011;55035;47.792;8.724;2022-11-20T06:30:15;9.43;;;3.10;;
68212;SDS011;55035;47.792;8.724;2022-11-20T06:32:42;7.80;;;2.50;;
68212;SDS011;55035;47.792;8.724;2022-11-20T06:35:09;5.55;;;1.73;;
68212;SDS011;55035;47.792;8.724;2022-11-20T06:37:36;8.20;;;2.83;;
68212;SDS011;55035;47.792;8.724;2022-11-20T06:40:04;8.52;;;2.97;;
68212;SDS011;55035;47.792;8.724;2022-11-20T06:42:33;8.57;;;3.15;;
68212;SDS011;55035;47.792;8.724;2022-11-20T06:45:00;6.97;;;2.63;;
68212;SDS011;55035;47.792;8.724;2022-11-20T06:47:28;8.88;;;2.92;;
68212;SDS011;55035;47.792;8.724;2022-11-20T06:49:55;6.43;;;2.10;;
68212;SDS011;55035;47.792;8.724;2022-11-20T06:52:22;5.72;;;1.80;;
68212;SDS011;55035;47.792;8.724;2022-11-20T06:54:49;5.43;;;1.73;;
68212;SDS011;55035;47.792;8.724;2022-11-20T06:57:16;6.43;;;1.90;;
68212;SDS011;55035;47.792;8.724;2022-11-20T06:59:44;8.15;;;2.20;;
68212;SDS011;55035;47.792;8.724;2022-11-20T07:02:11;6.20;;;1.90;;
68212;SDS011;55035;47.792;8.724;2022-11-20T07:04:38;8.05;;;2.28;;
68212;SDS011;55035;47.792;8.724;2022-11-20T07:07:05;7.15;;;1.92;;
68212;SDS011;55035;47.792;8.724;2022-11-20T07:09:32;5.22;;;1.42;;
68212;SDS011;55035;47.792;8.724;2022-11-20T07:11:59;4.63;;;1.23;;
68212;SDS011;55035;47.792;8.724;2022-11-20T07:14:26;3.93;;;1.10;;
68212;SDS011;55035;47.792;8.724;2022-11-20T07:16:54;4.53;;;1.10;;
68212;SDS011;55035;47.792;8.724;2022-11-20T07:19:21;5.95;;;1.48;;
68212;SDS011;55035;47.792;8.724;2022-11-20T07:21:48;4.15;;;1.00;;
68212;SDS011;55035;47.792;8.724;2022-11-20T07:24:14;4.93;;;1.48;;
68212;SDS011;55035;47.792;8.724;2022-11-20T07:26:42;5.40;;;1.60;;
68212;SDS011;55035;47.792;8.724;2022-11-20T07:29:12;5.15;;;1.52;;
68212;SDS011;55035;47.792;8.724;2022-11-20T07:31:39;5.22;;;1.70;;
68212;SDS011;55035;47.792;8.724;2022-11-20T07:34:09;5.28;;;1.30;;
68212;SDS011;55035;47.792;8.724;2022-11-20T07:36:36;3.25;;;0.80;;
68212;SDS011;55035;47.792;8.724;2022-11-20T07:39:03;6.10;;;1.53;;
68212;SDS011;55035;47.792;8.724;2022-11-20T07:41:31;5.05;;;1.30;;
68212;SDS011;55035;47.792;8.724;2022-11-20T07:43:57;4.72;;;1.00;;
68212;SDS011;55035;47.792;8.724;2022-11-20T07:46:24;4.75;;;1.20;;
68212;SDS011;55035;47.792;8.724;2022-11-20T07:48:51;6.30;;;1.60;;
68212;SDS011;55035;47.792;8.724;2022-11-20T07:51:19;5.70;;;1.50;;
68212;SDS011;55035;47.792;8.724;2022-11-20T07:53:46;6.00;;;1.80;;
68212;SDS011;55035;47.792;8.724;2022-11-20T07:56:13;5.45;;;1.45;;
68212;SDS011;55035;47.792;8.724;2022-11-20T07:58:40;5.40;;;1.40;;
68212;SDS011;55035;47.792;8.724;2022-11-20T08:01:07;5.97;;;1.30;;
68212;SDS011;55035;47.792;8.724;2022-11-20T08:03:34;5.30;;;1.60;;
68212;SDS011;55035;47.792;8.724;2022-11-20T08:06:05;5.70;;;1.60;;
68212;SDS011;55035;47.792;8.724;2022-11-20T08:08:33;4.32;;;1.08;;
68212;SDS011;55035;47.792;8.724;2022-11-20T08:11:00;4.85;;;1.25;;
68212;SDS011;55035;47.792;8.724;2022-11-20T08:13:41;5.53;;;1.48;;
68212;SDS011;55035;47.792;8.724;2022-11-20T08:16:25;4.53;;;1.30;;
68212;SDS011;55035;47.792;8.724;2022-11-20T08:18:55;4.55;;;1.20;;
68212;SDS011;55035;47.792;8.724;2022-11-20T08:21:22;4.65;;;1.27;;
68212;SDS011;55035;47.792;8.724;2022-11-20T08:23:50;4.32;;;1.15;;
68212;SDS011;55035;47.792;8.724;2022-11-20T08:26:17;5.15;;;1.33;;
68212;SDS011;55035;47.792;8.724;2022-11-20T08:28:44;5.87;;;1.27;;
68212;SDS011;55035;47.792;8.724;2022-11-20T08:31:11;4.88;;;1.20;;
68212;SDS011;55035;47.792;8.724;2022-11-20T08:33:38;5.22;;;1.40;;
68212;SDS011;55035;47.792;8.724;2022-11-20T08:36:05;4.30;;;0.90;;
68212;SDS011;55035;47.792;8.724;2022-11-20T08:38:32;5.90;;;1.77;;
68212;SDS011;55035;47.792;8.724;2022-11-20T08:41:01;4.53;;;1.03;;
68212;SDS011;55035;47.792;8.724;2022-11-20T08:43:47;4.93;;;1.10;;
68212;SDS011;55035;47.792;8.724;2022-11-20T08:46:17;4.43;;;1.17;;
68212;SDS011;55035;47.792;8.724;2022-11-20T08:48:44;6.78;;;1.50;;
68212;SDS011;55035;47.792;8.724;2022-11-20T08:51:11;4.85;;;1.20;;
68212;SDS011;55035;47.792;8.724;2022-11-20T08:53:38;5.77;;;1.30;;
68212;SDS011;55035;47.792;8.724;2022-11-20T08:56:06;4.85;;;1.17;;
68212;SDS011;55035;47.792;8.724;2022-11-20T08:58:34;6.90;;;1.70;;
68212;SDS011;55035;47.792;8.724;2022-11-20T09:01:02;5.97;;;1.30;;
68212;SDS011;55035;47.792;8.724;2022-11-20T09:03:29;6.95;;;1.70;;
68212;SDS011;55035;47.792;8.724;2022-11-20T09:05:56;6.17;;;1.67;;
68212;SDS011;55035;47.792;8.724;2022-11-20T09:08:23;5.28;;;1.45;;
68212;SDS011;55035;47.792;8.724;2022-11-20T09:10:51;5.47;;;1.70;;
68212;SDS011;55035;47.792;8.724;2022-11-20T09:13:19;5.30;;;1.40;;
68212;SDS011;55035;47.792;8.724;2022-11-20T09:15:46;5.35;;;1.60;;
68212;SDS011;55035;47.792;8.724;2022-11-20T09:18:13;4.97;;;1.40;;
68212;SDS011;55035;47.792;8.724;2022-11-20T09:20:39;5.30;;;1.27;;
68212;SDS011;55035;47.792;8.724;2022-11-20T09:23:06;6.00;;;1.50;;
68212;SDS011;55035;47.792;8.724;2022-11-20T09:25:33;6.72;;;1.88;;
68212;SDS011;55035;47.792;8.724;2022-11-20T09:28:00;5.43;;;1.50;;
68212;SDS011;55035;47.792;8.724;2022-11-20T09:30:28;5.63;;;1.70;;
68212;SDS011;55035;47.792;8.724;2022-11-20T09:32:56;6.20;;;1.90;;
68212;SDS011;55035;47.792;8.724;2022-11-20T09:35:23;5.38;;;1.40;;
68212;SDS011;55035;47.792;8.724;2022-11-20T09:37:50;5.43;;;1.48;;
68212;SDS011;55035;47.792;8.724;2022-11-20T09:40:18;5.15;;;1.60;;
68212;SDS011;55035;47.792;8.724;2022-11-20T09:42:47;5.83;;;1.53;;
68212;SDS011;55035;47.792;8.724;2022-11-20T09:45:22;6.35;;;1.85;;
68212;SDS011;55035;47.792;8.724;2022-11-20T09:47:58;6.05;;;1.90;;
68212;SDS011;55035;47.792;8.724;2022-11-20T09:50:30;5.70;;;1.70;;
68212;SDS011;55035;47.792;8.724;2022-11-20T09:53:04;5.22;;;1.52;;
68212;SDS011;55035;47.792;8.724;2022-11-20T09:55:36;10.40;;;1.70;;
68212;SDS011;55035;47.792;8.724;2022-11-20T09:58:12;5.57;;;1.60;;
68212;SDS011;55035;47.792;8.724;2022-11-20T10:00:42;5.85;;;1.35;;
68212;SDS011;55035;47.792;8.724;2022-11-20T10:03:13;5.47;;;1.30;;
68212;SDS011;55035;47.792;8.724;2022-11-20T10:05:42;5.72;;;1.35;;
68212;SDS011;55035;47.792;8.724;2022-11-20T10:08:12;4.23;;;0.93;;
68212;SDS011;55035;47.792;8.724;2022-11-20T10:10:42;5.03;;;1.13;;
68212;SDS011;55035;47.792;8.724;2022-11-20T10:13:14;5.45;;;1.40;;
68212;SDS011;55035;47.792;8.724;2022-11-20T10:15:45;4.93;;;1.15;;
68212;SDS011;55035;47.792;8.724;2022-11-20T10:18:21;5.53;;;1.17;;
68212;SDS011;55035;47.792;8.724;2022-11-20T10:20:52;5.33;;;1.00;;
68212;SDS011;55035;47.792;8.724;2022-11-20T10:23:29;5.10;;;1.08;;
68212;SDS011;55035;47.792;8.724;2022-11-20T10:26:00;4.88;;;1.00;;
68212;SDS011;55035;47.792;8.724;2022-11-20T10:28:30;4.60;;;0.82;;
68212;SDS011;55035;47.792;8.724;2022-11-20T10:31:02;5.28;;;1.10;;
68212;SDS011;55035;47.792;8.724;2022-11-20T10:33:33;4.47;;;1.10;;
68212;SDS011;55035;47.792;8.724;2022-11-20T10:36:05;2.95;;;0.60;;
68212;SDS011;55035;47.792;8.724;2022-11-20T10:38:35;3.85;;;0.80;;
68212;SDS011;55035;47.792;8.724;2022-11-20T10:41:04;4.32;;;0.73;;
68212;SDS011;55035;47.792;8.724;2022-11-20T10:43:51;3.90;;;0.80;;
68212;SDS011;55035;47.792;8.724;2022-11-20T10:46:20;3.40;;;0.63;;
68212;SDS011;55035;47.792;8.724;2022-11-20T10:48:50;3.10;;;0.60;;
68212;SDS011;55035;47.792;8.724;2022-11-20T10:51:28;3.20;;;0.60;;
68212;SDS011;55035;47.792;8.724;2022-11-20T10:53:58;2.78;;;0.60;;
68212;SDS011;55035;47.792;8.724;2022-11-20T10:56:30;4.30;;;0.80;;
68212;SDS011;55035;47.792;8.724;2022-11-20T10:59:02;3.43;;;0.63;;
68212;SDS011;55035;47.792;8.724;2022-11-20T11:01:29;6.05;;;1.15;;
68212;SDS011;55035;47.792;8.724;2022-11-20T11:03:57;3.60;;;0.75;;
68212;SDS011;55035;47.792;8.724;2022-11-20T11:06:26;4.35;;;0.80;;
68212;SDS011;55035;47.792;8.724;2022-11-20T11:08:56;4.68;;;0.85;;
68212;SDS011;55035;47.792;8.724;2022-11-20T11:11:26;5.20;;;0.73;;
68212;SDS011;55035;47.792;8.724;2022-11-20T11:14:03;3.72;;;0.70;;
68212;SDS011;55035;47.792;8.724;2022-11-20T11:16:30;5.57;;;0.82;;
68212;SDS011;55035;47.792;8.724;2022-11-20T11:19:04;3.28;;;0.60;;
68212;SDS011;55035;47.792;8.724;2022-11-20T11:21:32;3.70;;;0.70;;
68212;SDS011;55035;47.792;8.724;2022-11-20T11:23:59;3.77;;;0.63;;
68212;SDS011;55035;47.792;8.724;2022-11-20T11:26:27;4.78;;;0.70;;
68212;SDS011;55035;47.792;8.724;2022-11-20T11:28:54;3.45;;;0.75;;
68212;SDS011;55035;47.792;8.724;2022-11-20T11:31:22;4.28;;;0.90;;
68212;SDS011;55035;47.792;8.724;2022-11-20T11:33:49;4.38;;;0.70;;
68212;SDS011;55035;47.792;8.724;2022-11-20T11:36:19;9.53;;;2.13;;
68212;SDS011;55035;47.792;8.724;2022-11-20T11:38:48;5.20;;;1.02;;
68212;SDS011;55035;47.792;8.724;2022-11-20T11:41:17;3.78;;;0.73;;
68212;SDS011;55035;47.792;8.724;2022-11-20T11:43:49;3.30;;;0.70;;
68212;SDS011;55035;47.792;8.724;2022-11-20T11:46:35;4.32;;;0.90;;
68212;SDS011;55035;47.792;8.724;2022-11-20T11:49:11;4.40;;;0.80;;
68212;SDS011;55035;47.792;8.724;2022-11-20T11:51:41;3.13;;;0.55;;
68212;SDS011;55035;47.792;8.724;2022-11-20T11:54:15;4.15;;;0.70;;
68212;SDS011;55035;47.792;8.724;2022-11-20T11:56:43;3.92;;;0.70;;
68212;SDS011;55035;47.792;8.724;2022-11-20T11:59:12;4.20;;;0.90;;
68212;SDS011;55035;47.792;8.724;2022-11-20T12:01:42;4.40;;;0.90;;
68212;SDS011;55035;47.792;8.724;2022-11-20T12:04:13;3.47;;;0.77;;
68212;SDS011;55035;47.792;8.724;2022-11-20T12:06:43;4.32;;;1.00;;
68212;SDS011;55035;47.792;8.724;2022-11-20T12:09:10;4.30;;;0.80;;
68212;SDS011;55035;47.792;8.724;2022-11-20T12:11:38;4.60;;;1.17;;
68212;SDS011;55035;47.792;8.724;2022-11-20T12:14:09;3.93;;;0.80;;
68212;SDS011;55035;47.792;8.724;2022-11-20T12:16:39;4.72;;;0.90;;
68212;SDS011;55035;47.792;8.724;2022-11-20T12:19:08;3.75;;;0.68;;
68212;SDS011;55035;47.792;8.724;2022-11-20T12:21:38;6.00;;;1.00;;
68212;SDS011;55035;47.792;8.724;2022-11-20T12:24:15;3.42;;;0.73;;
68212;SDS011;55035;47.792;8.724;2022-11-20T12:26:49;4.23;;;1.00;;
68212;SDS011;55035;47.792;8.724;2022-11-20T12:29:22;5.18;;;0.80;;
68212;SDS011;55035;47.792;8.724;2022-11-20T12:32:01;4.20;;;1.00;;
68212;SDS011;55035;47.792;8.724;2022-11-20T12:34:35;4.30;;;0.90;;
68212;SDS011;55035;47.792;8.724;2022-11-20T12:37:07;4.68;;;0.77;;
68212;SDS011;55035;47.792;8.724;2022-11-20T12:39:41;3.80;;;0.70;;
68212;SDS011;55035;47.792;8.724;2022-11-20T12:45:26;4.47;;;1.13;;
68212;SDS011;55035;47.792;8.724;2022-11-20T12:48:03;4.95;;;0.85;;
68212;SDS011;55035;47.792;8.724;2022-11-20T12:50:37;4.43;;;1.10;;
68212;SDS011;55035;47.792;8.724;2022-11-20T12:53:07;4.20;;;0.70;;
68212;SDS011;55035;47.792;8.724;2022-11-20T12:55:43;3.53;;;0.70;;
68212;SDS011;55035;47.792;8.724;2022-11-20T12:58:16;5.70;;;1.00;;
68212;SDS011;55035;47.792;8.724;2022-11-20T13:00:47;4.35;;;1.10;;
68212;SDS011;55035;47.792;8.724;2022-11-20T13:03:23;5.63;;;1.33;;
68212;SDS011;55035;47.792;8.724;2022-11-20T13:05:58;3.83;;;0.80;;
68212;SDS011;55035;47.792;8.724;2022-11-20T13:08:27;4.80;;;1.05;;
68212;SDS011;55035;47.792;8.724;2022-11-20T13:10:58;4.00;;;0.80;;
68212;SDS011;55035;47.792;8.724;2022-11-20T13:13:29;4.97;;;1.02;;
68212;SDS011;55035;47.792;8.724;2022-11-20T13:16:00;4.50;;;1.02;;
68212;SDS011;55035;47.792;8.724;2022-11-20T13:18:29;4.67;;;1.10;;
68212;SDS011;55035;47.792;8.724;2022-11-20T13:21:00;4.40;;;1.08;;
68212;SDS011;55035;47.792;8.724;2022-11-20T13:23:27;4.18;;;1.00;;
68212;SDS011;55035;47.792;8.724;2022-11-20T13:26:06;5.45;;;0.90;;
68212;SDS011;55035;47.792;8.724;2022-11-20T13:28:41;4.32;;;1.00;;
68212;SDS011;55035;47.792;8.724;2022-11-20T13:31:09;4.30;;;0.80;;
68212;SDS011;55035;47.792;8.724;2022-11-20T13:33:49;4.47;;;1.10;;
68212;SDS011;55035;47.792;8.724;2022-11-20T13:36:21;4.40;;;0.80;;
68212;SDS011;55035;47.792;8.724;2022-11-20T13:38:48;4.20;;;1.00;;
68212;SDS011;55035;47.792;8.724;2022-11-20T13:41:24;6.57;;;1.27;;
68212;SDS011;55035;47.792;8.724;2022-11-20T13:43:54;4.07;;;0.93;;
68212;SDS011;55035;47.792;8.724;2022-11-20T13:46:34;3.97;;;0.80;;
68212;SDS011;55035;47.792;8.724;2022-11-20T13:49:06;4.25;;;0.80;;
68212;SDS011;55035;47.792;8.724;2022-11-20T13:51:35;3.70;;;0.80;;
68212;SDS011;55035;47.792;8.724;2022-11-20T13:54:22;4.28;;;1.00;;
68212;SDS011;55035;47.792;8.724;2022-11-20T13:57:04;3.70;;;0.80;;
68212;SDS011;55035;47.792;8.724;2022-11-20T13:59:38;4.03;;;0.90;;
68212;SDS011;55035;47.792;8.724;2022-11-20T14:02:09;4.13;;;0.73;;
68212;SDS011;55035;47.792;8.724;2022-11-20T14:04:38;3.78;;;0.75;;
68212;SDS011;55035;47.792;8.724;2022-11-20T14:07:08;4.55;;;0.98;;
68212;SDS011;55035;47.792;8.724;2022-11-20T14:09:35;5.13;;;1.00;;
68212;SDS011;55035;47.792;8.724;2022-11-20T14:12:12;4.85;;;1.00;;
68212;SDS011;55035;47.792;8.724;2022-11-20T14:14:47;6.65;;;1.02;;
68212;SDS011;55035;47.792;8.724;2022-11-20T14:17:17;3.78;;;0.73;;
68212;SDS011;55035;47.792;8.724;2022-11-20T14:19:44;4.40;;;0.82;;
68212;SDS011;55035;47.792;8.724;2022-11-20T14:22:16;3.67;;;0.83;;
68212;SDS011;55035;47.792;8.724;2022-11-20T14:24:44;5.13;;;0.80;;
68212;SDS011;55035;47.792;8.724;2022-11-20T14:27:16;4.65;;;0.90;;
68212;SDS011;55035;47.792;8.724;2022-11-20T14:29:44;3.97;;;0.80;;
68212;SDS011;55035;47.792;8.724;2022-11-20T14:32:14;3.95;;;0.75;;
68212;SDS011;55035;47.792;8.724;2022-11-20T14:34:41;4.67;;;0.80;;
68212;SDS011;55035;47.792;8.724;2022-11-20T14:37:10;4.07;;;0.70;;
68212;SDS011;55035;47.792;8.724;2022-11-20T14:39:40;4.13;;;0.80;;
68212;SDS011;55035;47.792;8.724;2022-11-20T14:42:13;4.15;;;0.80;;
68212;SDS011;55035;47.792;8.724;2022-11-20T14:44:42;4.30;;;0.80;;
68212;SDS011;55035;47.792;8.724;2022-11-20T14:47:10;3.77;;;0.83;;
68212;SDS011;55035;47.792;8.724;2022-11-20T14:49:39;5.13;;;1.00;;
68212;SDS011;55035;47.792;8.724;2022-11-20T14:52:10;3.67;;;0.80;;
68212;SDS011;55035;47.792;8.724;2022-11-20T14:54:43;3.28;;;0.70;;
68212;SDS011;55035;47.792;8.724;2022-11-20T14:57:18;5.35;;;1.00;;
68212;SDS011;55035;47.792;8.724;2022-11-20T14:59:47;4.63;;;0.83;;